sensor_id;sensor_type;location;lat;lon;timestamp;P1;durP1;ratioP1;P2;durP2;ratioP2
18042;SDS011;9146;48.074;11.968;2023-08-17T00:01:24;15.87;;;14.20;;
18042;SDS011;9146;48.074;11.968;2023-08-17T00:03:51;15.13;;;13.60;;
18042;SDS011;9146;48.074;11.968;2023-08-17T00:06:18;15.20;;;13.70;;
18042;SDS011;9146;48.074;11.968;2023-08-17T00:08:45;15.23;;;13.63;;
18042;SDS011;9146;48.074;11.968;2023-08-17T00:11:11;18.83;;;16.83;;
18042;SDS011;9146;48.074;11.968;2023-08-17T00:13:39;19.50;;;16.13;;
18042;SDS011;9146;48.074;11.968;2023-08-17T00:16:05;16.30;;;14.53;;
18042;SDS011;9146;48.074;11.968;2023-08-17T00:18:34;14.70;;;13.30;;
18042;SDS011;9146;48.074;11.968;2023-08-17T00:21:01;14.37;;;12.87;;
18042;SDS011;9146;48.074;11.968;2023-08-17T00:23:28;13.40;;;12.10;;
18042;SDS011;9146;48.074;11.968;2023-08-17T00:25:55;13.10;;;11.80;;
18042;SDS011;9146;48.074;11.968;2023-08-17T00:28:22;11.37;;;10.33;;
18042;SDS011;9146;48.074;11.968;2023-08-17T00:30:50;10.87;;;9.87;;
18042;SDS011;9146;48.074;11.968;2023-08-17T00:33:16;12.77;;;11.57;;
18042;SDS011;9146;48.074;11.968;2023-08-17T00:35:45;12.03;;;10.93;;
18042;SDS011;9146;48.074;11.968;2023-08-17T00:38:12;12.70;;;11.60;;
18042;SDS011;9146;48.074;11.968;2023-08-17T00:40:39;11.97;;;10.77;;
18042;SDS011;9146;48.074;11.968;2023-08-17T00:43:06;14.77;;;13.13;;
18042;SDS011;9146;48.074;11.968;2023-08-17T00:45:33;13.87;;;12.50;;
18042;SDS011;9146;48.074;11.968;2023-08-17T00:48:01;14.90;;;13.10;;
18042;SDS011;9146;48.074;11.968;2023-08-17T00:50:30;13.20;;;11.83;;
18042;SDS011;9146;48.074;11.968;2023-08-17T00:52:58;13.00;;;11.80;;
18042;SDS011;9146;48.074;11.968;2023-08-17T00:55:25;11.90;;;10.80;;
18042;SDS011;9146;48.074;11.968;2023-08-17T00:57:53;11.80;;;10.70;;
18042;SDS011;9146;48.074;11.968;2023-08-17T01:00:22;12.60;;;11.30;;
18042;SDS011;9146;48.074;11.968;2023-08-17T01:02:50;13.70;;;12.40;;
18042;SDS011;9146;48.074;11.968;2023-08-17T01:05:17;16.53;;;14.80;;
18042;SDS011;9146;48.074;11.968;2023-08-17T01:07:44;17.30;;;14.37;;
18042;SDS011;9146;48.074;11.968;2023-08-17T01:10:13;15.70;;;14.10;;
18042;SDS011;9146;48.074;11.968;2023-08-17T01:12:42;14.87;;;13.37;;
18042;SDS011;9146;48.074;11.968;2023-08-17T01:15:19;14.17;;;12.77;;
18042;SDS011;9146;48.074;11.968;2023-08-17T01:17:52;12.93;;;11.67;;
18042;SDS011;9146;48.074;11.968;2023-08-17T01:20:25;13.50;;;12.30;;
18042;SDS011;9146;48.074;11.968;2023-08-17T01:22:55;12.13;;;11.00;;
18042;SDS011;9146;48.074;11.968;2023-08-17T01:25:26;12.07;;;10.87;;
18042;SDS011;9146;48.074;11.968;2023-08-17T01:27:53;12.13;;;11.03;;
18042;SDS011;9146;48.074;11.968;2023-08-17T01:30:20;11.40;;;10.37;;
18042;SDS011;9146;48.074;11.968;2023-08-17T01:32:48;15.17;;;13.23;;
18042;SDS011;9146;48.074;11.968;2023-08-17T01:35:21;15.13;;;13.63;;
18042;SDS011;9146;48.074;11.968;2023-08-17T01:37:56;16.80;;;15.03;;
18042;SDS011;9146;48.074;11.968;2023-08-17T01:40:27;14.83;;;13.43;;
18042;SDS011;9146;48.074;11.968;2023-08-17T01:42:56;13.77;;;12.37;;
18042;SDS011;9146;48.074;11.968;2023-08-17T01:45:24;12.20;;;11.10;;
18042;SDS011;9146;48.074;11.968;2023-08-17T01:47:51;11.87;;;10.70;;
18042;SDS011;9146;48.074;11.968;2023-08-17T01:50:18;12.20;;;11.03;;
18042;SDS011;9146;48.074;11.968;2023-08-17T01:52:45;16.43;;;14.73;;
18042;SDS011;9146;48.074;11.968;2023-08-17T01:55:12;14.03;;;12.70;;
18042;SDS011;9146;48.074;11.968;2023-08-17T01:57:40;14.60;;;13.03;;
18042;SDS011;9146;48.074;11.968;2023-08-17T02:00:07;14.80;;;13.07;;
18042;SDS011;9146;48.074;11.968;2023-08-17T02:02:36;13.70;;;12.23;;
18042;SDS011;9146;48.074;11.968;2023-08-17T02:05:03;10.97;;;9.90;;
18042;SDS011;9146;48.074;11.968;2023-08-17T02:07:30;12.47;;;11.20;;
18042;SDS011;9146;48.074;11.968;2023-08-17T02:09:57;10.90;;;9.90;;
18042;SDS011;9146;48.074;11.968;2023-08-17T02:12:24;10.97;;;9.87;;
18042;SDS011;9146;48.074;11.968;2023-08-17T02:14:53;11.13;;;10.17;;
18042;SDS011;9146;48.074;11.968;2023-08-17T02:17:19;11.70;;;10.50;;
18042;SDS011;9146;48.074;11.968;2023-08-17T02:19:47;10.60;;;9.60;;
18042;SDS011;9146;48.074;11.968;2023-08-17T02:22:14;13.70;;;12.40;;
18042;SDS011;9146;48.074;11.968;2023-08-17T02:24:41;14.50;;;11.93;;
18042;SDS011;9146;48.074;11.968;2023-08-17T02:27:09;14.77;;;13.10;;
18042;SDS011;9146;48.074;11.968;2023-08-17T02:29:36;14.97;;;11.50;;
18042;SDS011;9146;48.074;11.968;2023-08-17T02:32:05;15.50;;;13.10;;
18042;SDS011;9146;48.074;11.968;2023-08-17T02:34:32;13.60;;;11.37;;
18042;SDS011;9146;48.074;11.968;2023-08-17T02:36:59;14.00;;;12.03;;
18042;SDS011;9146;48.074;11.968;2023-08-17T02:39:25;12.73;;;11.43;;
18042;SDS011;9146;48.074;11.968;2023-08-17T02:41:52;14.30;;;12.13;;
18042;SDS011;9146;48.074;11.968;2023-08-17T02:44:20;17.00;;;14.90;;
18042;SDS011;9146;48.074;11.968;2023-08-17T02:46:47;25.90;;;21.27;;
18042;SDS011;9146;48.074;11.968;2023-08-17T02:49:17;23.67;;;18.50;;
18042;SDS011;9146;48.074;11.968;2023-08-17T02:51:45;24.03;;;18.90;;
18042;SDS011;9146;48.074;11.968;2023-08-17T02:54:12;23.20;;;20.20;;
18042;SDS011;9146;48.074;11.968;2023-08-17T02:56:39;22.33;;;17.00;;
18042;SDS011;9146;48.074;11.968;2023-08-17T02:59:05;31.00;;;22.87;;
18042;SDS011;9146;48.074;11.968;2023-08-17T03:01:32;27.07;;;21.57;;
18042;SDS011;9146;48.074;11.968;2023-08-17T03:03:59;26.60;;;20.97;;
18042;SDS011;9146;48.074;11.968;2023-08-17T03:06:27;25.40;;;20.33;;
18042;SDS011;9146;48.074;11.968;2023-08-17T03:08:54;31.63;;;22.90;;
18042;SDS011;9146;48.074;11.968;2023-08-17T03:11:21;32.43;;;23.40;;
18042;SDS011;9146;48.074;11.968;2023-08-17T03:13:48;36.83;;;24.20;;
18042;SDS011;9146;48.074;11.968;2023-08-17T03:16:15;37.97;;;25.03;;
18042;SDS011;9146;48.074;11.968;2023-08-17T03:18:42;35.00;;;24.87;;
18042;SDS011;9146;48.074;11.968;2023-08-17T03:21:09;36.67;;;25.77;;
18042;SDS011;9146;48.074;11.968;2023-08-17T03:23:37;33.57;;;24.27;;
18042;SDS011;9146;48.074;11.968;2023-08-17T03:26:04;32.93;;;24.17;;
18042;SDS011;9146;48.074;11.968;2023-08-17T03:28:31;31.00;;;23.60;;
18042;SDS011;9146;48.074;11.968;2023-08-17T03:30:58;24.90;;;21.20;;
18042;SDS011;9146;48.074;11.968;2023-08-17T03:33:25;28.67;;;21.23;;
18042;SDS011;9146;48.074;11.968;2023-08-17T03:35:52;22.53;;;19.67;;
18042;SDS011;9146;48.074;11.968;2023-08-17T03:38:19;21.87;;;17.47;;
18042;SDS011;9146;48.074;11.968;2023-08-17T03:40:47;21.50;;;18.30;;
18042;SDS011;9146;48.074;11.968;2023-08-17T03:43:14;20.87;;;18.43;;
18042;SDS011;9146;48.074;11.968;2023-08-17T03:45:43;16.50;;;14.80;;
18042;SDS011;9146;48.074;11.968;2023-08-17T03:48:10;15.20;;;13.70;;
18042;SDS011;9146;48.074;11.968;2023-08-17T03:50:37;16.67;;;14.30;;
18042;SDS011;9146;48.074;11.968;2023-08-17T03:53:04;16.40;;;14.80;;
18042;SDS011;9146;48.074;11.968;2023-08-17T03:55:31;20.37;;;17.37;;
18042;SDS011;9146;48.074;11.968;2023-08-17T03:57:59;22.40;;;19.97;;
18042;SDS011;9146;48.074;11.968;2023-08-17T04:00:26;21.90;;;19.60;;
18042;SDS011;9146;48.074;11.968;2023-08-17T04:02:53;24.30;;;20.97;;
18042;SDS011;9146;48.074;11.968;2023-08-17T04:05:20;20.77;;;18.03;;
18042;SDS011;9146;48.074;11.968;2023-08-17T04:07:47;17.07;;;15.30;;
18042;SDS011;9146;48.074;11.968;2023-08-17T04:10:13;18.20;;;16.00;;
18042;SDS011;9146;48.074;11.968;2023-08-17T04:12:40;20.30;;;17.43;;
18042;SDS011;9146;48.074;11.968;2023-08-17T04:15:09;20.07;;;17.77;;
18042;SDS011;9146;48.074;11.968;2023-08-17T04:17:36;20.20;;;17.63;;
18042;SDS011;9146;48.074;11.968;2023-08-17T04:20:03;17.17;;;15.10;;
18042;SDS011;9146;48.074;11.968;2023-08-17T04:22:31;18.83;;;16.80;;
18042;SDS011;9146;48.074;11.968;2023-08-17T04:24:58;17.70;;;15.90;;
18042;SDS011;9146;48.074;11.968;2023-08-17T04:27:25;18.53;;;16.63;;
18042;SDS011;9146;48.074;11.968;2023-08-17T04:29:51;16.33;;;14.50;;
18042;SDS011;9146;48.074;11.968;2023-08-17T04:32:20;18.93;;;16.03;;
18042;SDS011;9146;48.074;11.968;2023-08-17T04:34:47;17.57;;;15.67;;
18042;SDS011;9146;48.074;11.968;2023-08-17T04:37:14;17.40;;;15.17;;
18042;SDS011;9146;48.074;11.968;2023-08-17T04:39:41;19.27;;;16.30;;
18042;SDS011;9146;48.074;11.968;2023-08-17T04:42:08;15.20;;;13.30;;
18042;SDS011;9146;48.074;11.968;2023-08-17T04:44:36;13.73;;;12.20;;
18042;SDS011;9146;48.074;11.968;2023-08-17T04:47:03;15.37;;;13.63;;
18042;SDS011;9146;48.074;11.968;2023-08-17T04:49:31;15.30;;;13.70;;
18042;SDS011;9146;48.074;11.968;2023-08-17T04:51:58;25.80;;;19.20;;
18042;SDS011;9146;48.074;11.968;2023-08-17T04:54:25;26.57;;;20.40;;
18042;SDS011;9146;48.074;11.968;2023-08-17T04:56:52;21.63;;;18.23;;
18042;SDS011;9146;48.074;11.968;2023-08-17T04:59:19;20.07;;;17.30;;
18042;SDS011;9146;48.074;11.968;2023-08-17T05:01:46;19.70;;;17.00;;
18042;SDS011;9146;48.074;11.968;2023-08-17T05:04:12;28.00;;;21.37;;
18042;SDS011;9146;48.074;11.968;2023-08-17T05:06:41;28.90;;;23.13;;
18042;SDS011;9146;48.074;11.968;2023-08-17T05:09:08;26.07;;;21.87;;
18042;SDS011;9146;48.074;11.968;2023-08-17T05:11:35;29.27;;;23.27;;
18042;SDS011;9146;48.074;11.968;2023-08-17T05:14:02;24.47;;;21.90;;
18042;SDS011;9146;48.074;11.968;2023-08-17T05:16:29;21.47;;;19.13;;
18042;SDS011;9146;48.074;11.968;2023-08-17T05:18:55;19.07;;;17.17;;
18042;SDS011;9146;48.074;11.968;2023-08-17T05:21:24;21.73;;;19.40;;
18042;SDS011;9146;48.074;11.968;2023-08-17T05:23:53;22.30;;;19.90;;
18042;SDS011;9146;48.074;11.968;2023-08-17T05:26:19;18.47;;;16.57;;
18042;SDS011;9146;48.074;11.968;2023-08-17T05:28:46;19.90;;;18.03;;
18042;SDS011;9146;48.074;11.968;2023-08-17T05:31:13;18.87;;;17.07;;
18042;SDS011;9146;48.074;11.968;2023-08-17T05:33:40;17.03;;;15.33;;
18042;SDS011;9146;48.074;11.968;2023-08-17T05:36:07;15.23;;;13.67;;
18042;SDS011;9146;48.074;11.968;2023-08-17T05:38:34;15.30;;;13.90;;
18042;SDS011;9146;48.074;11.968;2023-08-17T05:41:02;17.37;;;15.67;;
18042;SDS011;9146;48.074;11.968;2023-08-17T05:43:29;21.13;;;19.13;;
18042;SDS011;9146;48.074;11.968;2023-08-17T05:45:56;18.90;;;17.20;;
18042;SDS011;9146;48.074;11.968;2023-08-17T05:48:24;18.03;;;16.27;;
18042;SDS011;9146;48.074;11.968;2023-08-17T05:50:51;18.83;;;15.53;;
18042;SDS011;9146;48.074;11.968;2023-08-17T05:53:18;19.73;;;17.83;;
18042;SDS011;9146;48.074;11.968;2023-08-17T05:55:45;20.30;;;18.23;;
18042;SDS011;9146;48.074;11.968;2023-08-17T05:58:13;16.80;;;15.17;;
18042;SDS011;9146;48.074;11.968;2023-08-17T06:00:40;16.10;;;14.60;;
18042;SDS011;9146;48.074;11.968;2023-08-17T06:03:07;19.07;;;17.23;;
18042;SDS011;9146;48.074;11.968;2023-08-17T06:05:34;15.87;;;14.40;;
18042;SDS011;9146;48.074;11.968;2023-08-17T06:08:01;12.83;;;11.70;;
18042;SDS011;9146;48.074;11.968;2023-08-17T06:10:28;11.57;;;10.57;;
18042;SDS011;9146;48.074;11.968;2023-08-17T06:12:55;14.60;;;13.20;;
18042;SDS011;9146;48.074;11.968;2023-08-17T06:15:24;15.57;;;14.07;;
18042;SDS011;9146;48.074;11.968;2023-08-17T06:17:51;16.53;;;14.83;;
18042;SDS011;9146;48.074;11.968;2023-08-17T06:20:18;18.10;;;16.30;;
18042;SDS011;9146;48.074;11.968;2023-08-17T06:22:46;20.07;;;17.97;;
18042;SDS011;9146;48.074;11.968;2023-08-17T06:25:14;18.47;;;16.57;;
18042;SDS011;9146;48.074;11.968;2023-08-17T06:27:41;17.00;;;15.50;;
18042;SDS011;9146;48.074;11.968;2023-08-17T06:30:09;15.77;;;14.37;;
18042;SDS011;9146;48.074;11.968;2023-08-17T06:32:38;14.93;;;13.53;;
18042;SDS011;9146;48.074;11.968;2023-08-17T06:35:06;15.20;;;13.87;;
18042;SDS011;9146;48.074;11.968;2023-08-17T06:37:34;14.47;;;13.07;;
18042;SDS011;9146;48.074;11.968;2023-08-17T06:40:01;16.23;;;14.73;;
18042;SDS011;9146;48.074;11.968;2023-08-17T06:42:28;13.23;;;11.93;;
18042;SDS011;9146;48.074;11.968;2023-08-17T06:44:55;18.47;;;12.83;;
18042;SDS011;9146;48.074;11.968;2023-08-17T06:47:22;11.83;;;10.63;;
18042;SDS011;9146;48.074;11.968;2023-08-17T06:49:50;12.80;;;11.60;;
18042;SDS011;9146;48.074;11.968;2023-08-17T06:52:17;10.93;;;10.00;;
18042;SDS011;9146;48.074;11.968;2023-08-17T06:54:44;8.73;;;8.07;;
18042;SDS011;9146;48.074;11.968;2023-08-17T06:57:11;9.93;;;9.03;;
18042;SDS011;9146;48.074;11.968;2023-08-17T06:59:38;9.80;;;8.90;;
18042;SDS011;9146;48.074;11.968;2023-08-17T07:02:05;10.73;;;9.83;;
18042;SDS011;9146;48.074;11.968;2023-08-17T07:04:32;11.13;;;9.87;;
18042;SDS011;9146;48.074;11.968;2023-08-17T07:07:00;10.57;;;7.73;;
18042;SDS011;9146;48.074;11.968;2023-08-17T07:09:27;9.43;;;8.57;;
18042;SDS011;9146;48.074;11.968;2023-08-17T07:11:54;10.13;;;9.13;;
18042;SDS011;9146;48.074;11.968;2023-08-17T07:14:21;8.40;;;7.60;;
18042;SDS011;9146;48.074;11.968;2023-08-17T07:16:48;8.47;;;7.80;;
18042;SDS011;9146;48.074;11.968;2023-08-17T07:19:15;8.53;;;7.83;;
18042;SDS011;9146;48.074;11.968;2023-08-17T07:21:42;7.97;;;7.30;;
18042;SDS011;9146;48.074;11.968;2023-08-17T07:24:14;8.00;;;7.27;;
18042;SDS011;9146;48.074;11.968;2023-08-17T07:26:42;8.60;;;7.90;;
18042;SDS011;9146;48.074;11.968;2023-08-17T07:29:09;10.07;;;9.17;;
18042;SDS011;9146;48.074;11.968;2023-08-17T07:31:37;8.20;;;7.50;;
18042;SDS011;9146;48.074;11.968;2023-08-17T07:34:04;9.83;;;9.00;;
18042;SDS011;9146;48.074;11.968;2023-08-17T07:36:31;8.60;;;7.77;;
18042;SDS011;9146;48.074;11.968;2023-08-17T07:38:59;6.53;;;6.03;;
18042;SDS011;9146;48.074;11.968;2023-08-17T07:41:27;8.40;;;7.70;;
18042;SDS011;9146;48.074;11.968;2023-08-17T07:43:54;8.20;;;7.50;;
18042;SDS011;9146;48.074;11.968;2023-08-17T07:46:21;7.57;;;6.93;;
18042;SDS011;9146;48.074;11.968;2023-08-17T07:48:48;8.63;;;7.83;;
18042;SDS011;9146;48.074;11.968;2023-08-17T07:51:15;10.10;;;9.07;;
18042;SDS011;9146;48.074;11.968;2023-08-17T07:53:42;8.97;;;8.07;;
18042;SDS011;9146;48.074;11.968;2023-08-17T07:56:09;8.73;;;8.03;;
18042;SDS011;9146;48.074;11.968;2023-08-17T07:58:37;7.90;;;7.20;;
18042;SDS011;9146;48.074;11.968;2023-08-17T08:01:04;8.70;;;7.90;;
18042;SDS011;9146;48.074;11.968;2023-08-17T08:03:31;7.50;;;6.90;;
18042;SDS011;9146;48.074;11.968;2023-08-17T08:05:58;7.50;;;6.80;;
18042;SDS011;9146;48.074;11.968;2023-08-17T08:08:25;7.60;;;7.00;;
18042;SDS011;9146;48.074;11.968;2023-08-17T08:10:52;11.20;;;7.37;;
18042;SDS011;9146;48.074;11.968;2023-08-17T08:13:20;9.40;;;8.50;;
18042;SDS011;9146;48.074;11.968;2023-08-17T08:15:48;8.53;;;7.57;;
18042;SDS011;9146;48.074;11.968;2023-08-17T08:18:15;7.23;;;6.63;;
18042;SDS011;9146;48.074;11.968;2023-08-17T08:20:42;8.20;;;7.40;;
18042;SDS011;9146;48.074;11.968;2023-08-17T08:23:08;9.20;;;8.40;;
18042;SDS011;9146;48.074;11.968;2023-08-17T08:25:35;9.10;;;8.20;;
18042;SDS011;9146;48.074;11.968;2023-08-17T08:28:02;7.00;;;6.30;;
18042;SDS011;9146;48.074;11.968;2023-08-17T08:30:29;8.00;;;7.30;;
18042;SDS011;9146;48.074;11.968;2023-08-17T08:32:58;8.07;;;7.37;;
18042;SDS011;9146;48.074;11.968;2023-08-17T08:35:25;8.60;;;7.77;;
18042;SDS011;9146;48.074;11.968;2023-08-17T08:37:52;7.10;;;6.50;;
18042;SDS011;9146;48.074;11.968;2023-08-17T08:40:20;7.53;;;6.83;;
18042;SDS011;9146;48.074;11.968;2023-08-17T08:42:53;9.07;;;8.03;;
18042;SDS011;9146;48.074;11.968;2023-08-17T08:45:20;8.80;;;7.33;;
18042;SDS011;9146;48.074;11.968;2023-08-17T08:47:49;8.70;;;7.73;;
18042;SDS011;9146;48.074;11.968;2023-08-17T08:50:19;8.10;;;7.30;;
18042;SDS011;9146;48.074;11.968;2023-08-17T08:52:49;8.57;;;7.77;;
18042;SDS011;9146;48.074;11.968;2023-08-17T08:55:21;7.30;;;6.70;;
18042;SDS011;9146;48.074;11.968;2023-08-17T08:57:50;7.47;;;6.77;;
18042;SDS011;9146;48.074;11.968;2023-08-17T09:00:19;7.00;;;6.40;;
18042;SDS011;9146;48.074;11.968;2023-08-17T09:02:47;8.60;;;7.80;;
18042;SDS011;9146;48.074;11.968;2023-08-17T09:05:15;8.40;;;6.40;;
18042;SDS011;9146;48.074;11.968;2023-08-17T09:07:44;8.53;;;7.73;;
18042;SDS011;9146;48.074;11.968;2023-08-17T09:10:13;7.27;;;6.67;;
18042;SDS011;9146;48.074;11.968;2023-08-17T09:12:41;7.87;;;7.13;;
18042;SDS011;9146;48.074;11.968;2023-08-17T09:15:08;6.90;;;6.40;;
18042;SDS011;9146;48.074;11.968;2023-08-17T09:17:37;7.17;;;6.50;;
18042;SDS011;9146;48.074;11.968;2023-08-17T09:20:04;7.33;;;6.43;;
18042;SDS011;9146;48.074;11.968;2023-08-17T09:22:38;6.87;;;6.37;;
18042;SDS011;9146;48.074;11.968;2023-08-17T09:25:06;7.47;;;6.77;;
18042;SDS011;9146;48.074;11.968;2023-08-17T09:27:34;6.53;;;6.03;;
18042;SDS011;9146;48.074;11.968;2023-08-17T09:30:03;6.90;;;6.20;;
18042;SDS011;9146;48.074;11.968;2023-08-17T09:32:31;8.30;;;7.50;;
18042;SDS011;9146;48.074;11.968;2023-08-17T09:35:00;8.67;;;7.50;;
18042;SDS011;9146;48.074;11.968;2023-08-17T09:37:28;6.87;;;6.27;;
18042;SDS011;9146;48.074;11.968;2023-08-17T09:39:57;7.73;;;7.13;;
18042;SDS011;9146;48.074;11.968;2023-08-17T09:42:24;6.63;;;6.00;;
18042;SDS011;9146;48.074;11.968;2023-08-17T09:44:53;8.63;;;7.27;;
18042;SDS011;9146;48.074;11.968;2023-08-17T09:47:21;7.43;;;6.83;;
18042;SDS011;9146;48.074;11.968;2023-08-17T09:49:48;7.07;;;6.40;;
18042;SDS011;9146;48.074;11.968;2023-08-17T09:52:15;7.73;;;7.13;;
18042;SDS011;9146;48.074;11.968;2023-08-17T09:54:42;8.43;;;7.50;;
18042;SDS011;9146;48.074;11.968;2023-08-17T09:57:13;7.20;;;6.70;;
18042;SDS011;9146;48.074;11.968;2023-08-17T09:59:40;6.33;;;5.80;;
18042;SDS011;9146;48.074;11.968;2023-08-17T10:02:10;6.20;;;5.70;;
18042;SDS011;9146;48.074;11.968;2023-08-17T10:04:44;6.50;;;6.00;;
18042;SDS011;9146;48.074;11.968;2023-08-17T10:07:16;7.83;;;7.13;;
18042;SDS011;9146;48.074;11.968;2023-08-17T10:09:47;10.20;;;6.57;;
18042;SDS011;9146;48.074;11.968;2023-08-17T10:12:19;7.37;;;6.70;;
18042;SDS011;9146;48.074;11.968;2023-08-17T10:14:49;7.40;;;6.70;;
18042;SDS011;9146;48.074;11.968;2023-08-17T10:17:25;8.13;;;7.53;;
18042;SDS011;9146;48.074;11.968;2023-08-17T10:19:54;6.30;;;5.80;;
18042;SDS011;9146;48.074;11.968;2023-08-17T10:22:25;6.57;;;5.97;;
18042;SDS011;9146;48.074;11.968;2023-08-17T10:24:57;6.43;;;5.83;;
18042;SDS011;9146;48.074;11.968;2023-08-17T10:27:26;6.07;;;5.57;;
18042;SDS011;9146;48.074;11.968;2023-08-17T10:29:53;8.17;;;7.50;;
18042;SDS011;9146;48.074;11.968;2023-08-17T10:32:21;7.73;;;7.07;;
18042;SDS011;9146;48.074;11.968;2023-08-17T10:34:49;7.43;;;6.70;;
18042;SDS011;9146;48.074;11.968;2023-08-17T10:37:18;7.87;;;6.87;;
18042;SDS011;9146;48.074;11.968;2023-08-17T10:39:48;6.50;;;6.00;;
18042;SDS011;9146;48.074;11.968;2023-08-17T10:42:15;6.33;;;5.83;;
18042;SDS011;9146;48.074;11.968;2023-08-17T10:44:57;6.70;;;6.20;;
18042;SDS011;9146;48.074;11.968;2023-08-17T10:47:29;6.83;;;6.23;;
18042;SDS011;9146;48.074;11.968;2023-08-17T10:49:58;6.17;;;5.57;;
18042;SDS011;9146;48.074;11.968;2023-08-17T10:52:30;6.63;;;6.10;;
18042;SDS011;9146;48.074;11.968;2023-08-17T10:55:02;6.53;;;5.90;;
18042;SDS011;9146;48.074;11.968;2023-08-17T10:57:32;6.50;;;5.70;;
18042;SDS011;9146;48.074;11.968;2023-08-17T11:00:06;7.03;;;6.53;;
18042;SDS011;9146;48.074;11.968;2023-08-17T11:02:42;6.00;;;5.50;;
18042;SDS011;9146;48.074;11.968;2023-08-17T11:05:10;6.50;;;5.93;;
18042;SDS011;9146;48.074;11.968;2023-08-17T11:07:39;6.17;;;5.67;;
18042;SDS011;9146;48.074;11.968;2023-08-17T11:10:13;6.27;;;5.77;;
18042;SDS011;9146;48.074;11.968;2023-08-17T11:12:53;8.60;;;5.77;;
18042;SDS011;9146;48.074;11.968;2023-08-17T11:15:23;6.90;;;6.40;;
18042;SDS011;9146;48.074;11.968;2023-08-17T11:17:50;7.33;;;6.73;;
18042;SDS011;9146;48.074;11.968;2023-08-17T11:20:18;6.47;;;5.87;;
18042;SDS011;9146;48.074;11.968;2023-08-17T11:22:45;6.77;;;6.27;;
18042;SDS011;9146;48.074;11.968;2023-08-17T11:25:12;5.50;;;5.10;;
18042;SDS011;9146;48.074;11.968;2023-08-17T11:27:39;7.00;;;6.40;;
18042;SDS011;9146;48.074;11.968;2023-08-17T11:30:07;7.37;;;6.77;;
18042;SDS011;9146;48.074;11.968;2023-08-17T11:32:36;8.83;;;7.80;;
18042;SDS011;9146;48.074;11.968;2023-08-17T11:35:03;8.87;;;8.17;;
18042;SDS011;9146;48.074;11.968;2023-08-17T11:37:30;8.17;;;7.47;;
18042;SDS011;9146;48.074;11.968;2023-08-17T11:39:57;6.43;;;5.93;;
18042;SDS011;9146;48.074;11.968;2023-08-17T11:42:25;7.23;;;6.63;;
18042;SDS011;9146;48.074;11.968;2023-08-17T11:44:52;7.80;;;7.20;;
18042;SDS011;9146;48.074;11.968;2023-08-17T11:47:18;9.37;;;8.47;;
18042;SDS011;9146;48.074;11.968;2023-08-17T11:49:48;7.50;;;6.90;;
18042;SDS011;9146;48.074;11.968;2023-08-17T11:52:15;8.50;;;7.80;;
18042;SDS011;9146;48.074;11.968;2023-08-17T11:54:42;8.03;;;7.33;;
18042;SDS011;9146;48.074;11.968;2023-08-17T11:57:09;8.23;;;7.47;;
18042;SDS011;9146;48.074;11.968;2023-08-17T11:59:36;8.60;;;7.87;;
18042;SDS011;9146;48.074;11.968;2023-08-17T12:02:03;9.93;;;7.70;;
18042;SDS011;9146;48.074;11.968;2023-08-17T12:04:31;8.30;;;7.60;;
18042;SDS011;9146;48.074;11.968;2023-08-17T12:07:00;8.37;;;7.70;;
18042;SDS011;9146;48.074;11.968;2023-08-17T12:09:27;8.17;;;7.57;;
18042;SDS011;9146;48.074;11.968;2023-08-17T12:11:58;7.60;;;7.00;;
18042;SDS011;9146;48.074;11.968;2023-08-17T12:14:26;7.00;;;6.20;;
18042;SDS011;9146;48.074;11.968;2023-08-17T12:16:55;7.83;;;7.07;;
18042;SDS011;9146;48.074;11.968;2023-08-17T12:19:24;7.80;;;7.20;;
18042;SDS011;9146;48.074;11.968;2023-08-17T12:21:51;6.40;;;5.93;;
18042;SDS011;9146;48.074;11.968;2023-08-17T12:24:20;7.77;;;7.03;;
18042;SDS011;9146;48.074;11.968;2023-08-17T12:26:50;7.53;;;6.83;;
18042;SDS011;9146;48.074;11.968;2023-08-17T12:29:17;7.00;;;6.30;;
18042;SDS011;9146;48.074;11.968;2023-08-17T12:31:44;6.73;;;6.23;;
18042;SDS011;9146;48.074;11.968;2023-08-17T12:34:11;7.20;;;6.50;;
18042;SDS011;9146;48.074;11.968;2023-08-17T12:36:38;6.37;;;5.87;;
18042;SDS011;9146;48.074;11.968;2023-08-17T12:39:05;6.63;;;6.13;;
18042;SDS011;9146;48.074;11.968;2023-08-17T12:41:33;7.10;;;6.40;;
18042;SDS011;9146;48.074;11.968;2023-08-17T12:44:00;7.63;;;7.03;;
18042;SDS011;9146;48.074;11.968;2023-08-17T12:46:27;6.43;;;5.97;;
18042;SDS011;9146;48.074;11.968;2023-08-17T12:48:57;7.07;;;6.40;;
18042;SDS011;9146;48.074;11.968;2023-08-17T12:51:28;6.93;;;6.43;;
18042;SDS011;9146;48.074;11.968;2023-08-17T12:53:54;8.60;;;7.80;;
18042;SDS011;9146;48.074;11.968;2023-08-17T12:56:21;7.07;;;6.37;;
18042;SDS011;9146;48.074;11.968;2023-08-17T12:58:50;6.63;;;6.13;;
18042;SDS011;9146;48.074;11.968;2023-08-17T13:01:17;7.83;;;6.80;;
18042;SDS011;9146;48.074;11.968;2023-08-17T13:03:44;8.00;;;7.30;;
18042;SDS011;9146;48.074;11.968;2023-08-17T13:06:10;6.73;;;6.20;;
18042;SDS011;9146;48.074;11.968;2023-08-17T13:08:37;8.10;;;6.60;;
18042;SDS011;9146;48.074;11.968;2023-08-17T13:11:04;6.20;;;5.70;;
18042;SDS011;9146;48.074;11.968;2023-08-17T13:13:31;6.80;;;6.27;;
18042;SDS011;9146;48.074;11.968;2023-08-17T13:15:59;6.60;;;6.00;;
18042;SDS011;9146;48.074;11.968;2023-08-17T13:18:26;6.57;;;6.07;;
18042;SDS011;9146;48.074;11.968;2023-08-17T13:20:53;7.20;;;6.70;;
18042;SDS011;9146;48.074;11.968;2023-08-17T13:23:20;6.10;;;5.50;;
18042;SDS011;9146;48.074;11.968;2023-08-17T13:25:47;7.00;;;6.00;;
18042;SDS011;9146;48.074;11.968;2023-08-17T13:28:14;6.53;;;6.03;;
18042;SDS011;9146;48.074;11.968;2023-08-17T13:30:41;10.87;;;6.90;;
18042;SDS011;9146;48.074;11.968;2023-08-17T13:33:10;6.13;;;5.73;;
18042;SDS011;9146;48.074;11.968;2023-08-17T13:35:37;6.20;;;5.80;;
18042;SDS011;9146;48.074;11.968;2023-08-17T13:38:04;6.40;;;5.90;;
18042;SDS011;9146;48.074;11.968;2023-08-17T13:40:32;6.43;;;5.90;;
18042;SDS011;9146;48.074;11.968;2023-08-17T13:42:59;6.50;;;6.00;;
18042;SDS011;9146;48.074;11.968;2023-08-17T13:45:26;9.07;;;7.07;;
18042;SDS011;9146;48.074;11.968;2023-08-17T13:47:53;12.63;;;6.60;;
18042;SDS011;9146;48.074;11.968;2023-08-17T13:50:22;6.23;;;5.83;;
18042;SDS011;9146;48.074;11.968;2023-08-17T13:52:48;6.87;;;6.33;;
18042;SDS011;9146;48.074;11.968;2023-08-17T13:55:15;7.80;;;7.20;;
18042;SDS011;9146;48.074;11.968;2023-08-17T13:57:43;7.03;;;6.50;;
18042;SDS011;9146;48.074;11.968;2023-08-17T14:00:10;7.33;;;6.63;;
18042;SDS011;9146;48.074;11.968;2023-08-17T14:02:38;7.10;;;6.40;;
18042;SDS011;9146;48.074;11.968;2023-08-17T14:05:05;7.57;;;6.80;;
18042;SDS011;9146;48.074;11.968;2023-08-17T14:07:34;7.90;;;6.07;;
18042;SDS011;9146;48.074;11.968;2023-08-17T14:10:01;8.77;;;8.07;;
18042;SDS011;9146;48.074;11.968;2023-08-17T14:12:28;7.70;;;7.10;;
18042;SDS011;9146;48.074;11.968;2023-08-17T14:14:55;7.20;;;6.60;;
18042;SDS011;9146;48.074;11.968;2023-08-17T14:17:22;8.77;;;8.07;;
18042;SDS011;9146;48.074;11.968;2023-08-17T14:19:49;8.00;;;7.30;;
18042;SDS011;9146;48.074;11.968;2023-08-17T14:22:16;8.10;;;6.97;;
18042;SDS011;9146;48.074;11.968;2023-08-17T14:24:44;7.13;;;6.53;;
18042;SDS011;9146;48.074;11.968;2023-08-17T14:27:11;8.13;;;7.53;;
18042;SDS011;9146;48.074;11.968;2023-08-17T14:29:38;8.67;;;7.80;;
18042;SDS011;9146;48.074;11.968;2023-08-17T14:32:05;7.97;;;7.17;;
18042;SDS011;9146;48.074;11.968;2023-08-17T14:34:32;8.20;;;7.50;;
18042;SDS011;9146;48.074;11.968;2023-08-17T14:36:59;7.90;;;7.30;;
18042;SDS011;9146;48.074;11.968;2023-08-17T14:39:26;9.10;;;8.40;;